Time;durP1;ratioP1;P1;durP2;ratioP2;P2;SDS_P1;SDS_P2;PMS_P1;PMS_P2;Temp;Humidity;BMP_temperature;BMP_pressure;BME280_temperature;BME280_humidity;BME280_pressure;Samples;Min_cycle;Max_cycle;Signal;HPM_P1;HPM_P2
2022/01/29 00:00:07;;;;;;;43.15;33.00;;;;;;;;;;4805278;29;87122;-71
2022/01/29 00:02:38;;;;;;;43.15;33.63;;;;;;;;;;4823221;29;87225;-71
2022/01/29 00:05:06;;;;;;;44.60;34.13;;;;;;;;;;4809886;29;89156;-72
2022/01/29 00:07:33;;;;;;;46.85;37.38;;;;;;;;;;4822604;29;89890;-71
2022/01/29 00:10:03;;;;;;;46.58;35.25;;;;;;;;;;4806507;29;87293;-72
2022/01/29 00:12:30;;;;;;;50.15;34.85;;;;;;;;;;4822092;29;90212;-71
2022/01/29 00:14:58;;;;;;;48.17;36.05;;;;;;;;;;4809514;29;88353;-71
2022/01/29 00:17:25;;;;;;;46.60;37.53;;;;;;;;;;4809732;29;87322;-71
2022/01/29 00:19:52;;;;;;;46.97;36.03;;;;;;;;;;4793175;29;86938;-72
2022/01/29 00:22:19;;;;;;;51.63;37.80;;;;;;;;;;4809350;29;88264;-72
2022/01/29 00:24:46;;;;;;;57.35;35.85;;;;;;;;;;4792466;29;88909;-72
2022/01/29 00:27:13;;;;;;;54.75;38.58;;;;;;;;;;4823130;29;87074;-71
2022/01/29 00:29:43;;;;;;;45.67;38.10;;;;;;;;;;4809596;29;86602;-71
2022/01/29 00:32:11;;;;;;;48.38;41.58;;;;;;;;;;4807798;29;87913;-71
2022/01/29 00:34:38;;;;;;;48.53;36.70;;;;;;;;;;4792150;29;88372;-70
2022/01/29 00:37:06;;;;;;;50.60;38.72;;;;;;;;;;4788977;29;88247;-70
2022/01/29 00:39:33;;;;;;;52.83;38.25;;;;;;;;;;4789735;29;86941;-70
2022/01/29 00:42:00;;;;;;;49.88;36.67;;;;;;;;;;4814114;29;88172;-70
2022/01/29 00:44:42;;;;;;;48.20;37.22;;;;;;;;;;4809286;29;88913;-70
2022/01/29 00:47:09;;;;;;;46.40;36.95;;;;;;;;;;4795119;29;86898;-71
2022/01/29 00:49:36;;;;;;;47.35;37.63;;;;;;;;;;4796082;29;86953;-70
2022/01/29 00:52:04;;;;;;;49.42;35.63;;;;;;;;;;4812064;29;88134;-71
2022/01/29 00:54:31;;;;;;;45.08;35.80;;;;;;;;;;4795485;29;88418;-70
2022/01/29 00:56:58;;;;;;;54.08;36.65;;;;;;;;;;4795600;29;86917;-70
2022/01/29 00:59:25;;;;;;;45.35;34.83;;;;;;;;;;4795280;29;87005;-70
2022/01/29 01:01:52;;;;;;;44.13;34.38;;;;;;;;;;4811542;29;88038;-71
2022/01/29 01:04:19;;;;;;;49.65;31.60;;;;;;;;;;4811330;29;90344;-71
2022/01/29 01:06:45;;;;;;;48.72;34.72;;;;;;;;;;4780540;29;86917;-71
2022/01/29 01:09:12;;;;;;;44.50;34.35;;;;;;;;;;4795169;29;87005;-72
2022/01/29 01:11:39;;;;;;;49.35;35.70;;;;;;;;;;4792129;29;90295;-72
2022/01/29 01:14:06;;;;;;;46.50;32.97;;;;;;;;;;4807921;29;88578;-73
2022/01/29 01:16:33;;;;;;;47.35;33.33;;;;;;;;;;4825501;29;86963;-73
2022/01/29 01:19:00;;;;;;;49.50;37.10;;;;;;;;;;4826348;29;86530;-73
2022/01/29 01:21:27;;;;;;;42.67;33.17;;;;;;;;;;4809868;29;88104;-73
2022/01/29 01:23:54;;;;;;;48.70;35.15;;;;;;;;;;4825850;29;89798;-73
2022/01/29 01:26:21;;;;;;;47.03;34.20;;;;;;;;;;4791852;29;87868;-72
2022/01/29 01:28:48;;;;;;;45.75;34.03;;;;;;;;;;4806628;29;87298;-72
2022/01/29 01:31:15;;;;;;;43.53;32.50;;;;;;;;;;4811550;29;89558;-72
2022/01/29 01:33:43;;;;;;;47.22;34.30;;;;;;;;;;4810726;29;88736;-72
2022/01/29 01:36:11;;;;;;;53.80;34.97;;;;;;;;;;4825637;29;86868;-72
2022/01/29 01:38:47;;;;;;;46.92;34.70;;;;;;;;;;4809671;29;87041;-72
2022/01/29 01:41:17;;;;;;;48.97;33.38;;;;;;;;;;4811187;29;87697;-72
2022/01/29 01:43:45;;;;;;;43.55;33.15;;;;;;;;;;4810143;29;86474;-72
2022/01/29 01:46:12;;;;;;;40.45;32.58;;;;;;;;;;4808941;29;86893;-72
2022/01/29 01:48:39;;;;;;;44.25;29.73;;;;;;;;;;4811852;29;86974;-72
2022/01/29 01:51:06;;;;;;;42.60;32.55;;;;;;;;;;4810066;29;90779;-72
2022/01/29 01:53:33;;;;;;;37.83;29.60;;;;;;;;;;4825101;29;88862;-72
2022/01/29 01:56:00;;;;;;;42.10;30.95;;;;;;;;;;4794067;29;86968;-72
2022/01/29 01:58:27;;;;;;;45.25;32.10;;;;;;;;;;4794988;29;87065;-73
2022/01/29 02:00:54;;;;;;;47.90;34.50;;;;;;;;;;4810717;29;87033;-72
2022/01/29 02:03:22;;;;;;;42.28;32.38;;;;;;;;;;4811056;29;89428;-73
2022/01/29 02:05:50;;;;;;;38.90;30.35;;;;;;;;;;4811041;29;87200;-73
2022/01/29 02:08:17;;;;;;;34.65;27.50;;;;;;;;;;4789912;29;87331;-73
2022/01/29 02:10:47;;;;;;;35.92;28.20;;;;;;;;;;4809803;29;90335;-72
2022/01/29 02:13:14;;;;;;;34.22;27.98;;;;;;;;;;4810733;29;87697;-72
2022/01/29 02:15:41;;;;;;;31.17;23.00;;;;;;;;;;4824838;29;88121;-73
2022/01/29 02:18:13;;;;;;;38.13;27.10;;;;;;;;;;4811318;29;87007;-72
2022/01/29 02:20:41;;;;;;;47.22;26.35;;;;;;;;;;4811124;29;89538;-73
2022/01/29 02:23:08;;;;;;;32.95;25.92;;;;;;;;;;4824807;29;88645;-73
2022/01/29 02:25:42;;;;;;;38.03;25.48;;;;;;;;;;4794495;29;86983;-73
2022/01/29 02:28:13;;;;;;;31.92;27.88;;;;;;;;;;4794953;29;86924;-73
2022/01/29 02:30:43;;;;;;;40.42;25.15;;;;;;;;;;4824446;29;86993;-73
2022/01/29 02:33:13;;;;;;;91.82;29.20;;;;;;;;;;4811233;29;86459;-72
2022/01/29 02:35:45;;;;;;;77.57;30.02;;;;;;;;;;4794081;29;86833;-72
2022/01/29 02:38:13;;;;;;;78.03;30.58;;;;;;;;;;4806761;29;87082;-72
2022/01/29 02:40:49;;;;;;;86.65;29.92;;;;;;;;;;4809456;29;88600;-72
2022/01/29 02:43:27;;;;;;;62.90;26.67;;;;;;;;;;4795075;29;89324;-72
2022/01/29 02:45:55;;;;;;;68.15;28.20;;;;;;;;;;4794205;29;87109;-72
2022/01/29 02:48:23;;;;;;;40.85;25.63;;;;;;;;;;4794248;29;86954;-72
2022/01/29 02:50:50;;;;;;;34.33;26.20;;;;;;;;;;4808683;29;89488;-73
2022/01/29 02:53:17;;;;;;;35.45;26.50;;;;;;;;;;4808610;29;89216;-73
2022/01/29 02:55:44;;;;;;;28.67;25.55;;;;;;;;;;4824703;29;86958;-70
2022/01/29 02:58:11;;;;;;;30.08;24.88;;;;;;;;;;4824692;29;86545;-70
2022/01/29 03:00:38;;;;;;;38.50;26.42;;;;;;;;;;4778537;29;88893;-70
2022/01/29 03:03:05;;;;;;;53.30;26.92;;;;;;;;;;4793613;29;89204;-71
2022/01/29 03:05:33;;;;;;;42.83;24.17;;;;;;;;;;4809487;29;88182;-70
2022/01/29 03:08:00;;;;;;;58.33;28.02;;;;;;;;;;4793182;29;87001;-71
2022/01/29 03:10:28;;;;;;;37.25;27.05;;;;;;;;;;4793252;29;88967;-72
2022/01/29 03:12:55;;;;;;;87.07;33.33;;;;;;;;;;4793190;29;87688;-71
2022/01/29 03:15:22;;;;;;;103.80;32.30;;;;;;;;;;4810168;29;86968;-71
2022/01/29 03:17:49;;;;;;;45.08;29.45;;;;;;;;;;4808816;29;87115;-71
2022/01/29 03:20:16;;;;;;;66.60;31.35;;;;;;;;;;4810083;29;89161;-71
2022/01/29 03:22:43;;;;;;;49.72;27.40;;;;;;;;;;4809796;29;89188;-72
2022/01/29 03:25:10;;;;;;;46.25;30.55;;;;;;;;;;4810060;29;86852;-72
2022/01/29 03:27:37;;;;;;;52.15;27.02;;;;;;;;;;4824048;29;86965;-71
2022/01/29 03:30:05;;;;;;;114.20;42.83;;;;;;;;;;4792960;29;90378;-72
2022/01/29 03:32:32;;;;;;;74.45;38.45;;;;;;;;;;4792975;29;89579;-73
2022/01/29 03:34:59;;;;;;;76.35;42.70;;;;;;;;;;4809763;29;87502;-71
2022/01/29 03:37:26;;;;;;;122.75;44.90;;;;;;;;;;4823773;29;86993;-72
2022/01/29 03:39:58;;;;;;;142.48;42.67;;;;;;;;;;4792631;29;90223;-71
2022/01/29 03:42:26;;;;;;;153.77;46.08;;;;;;;;;;4809787;29;89082;-71
2022/01/29 03:44:54;;;;;;;153.75;45.95;;;;;;;;;;4792922;29;87261;-71
2022/01/29 03:47:21;;;;;;;142.52;44.55;;;;;;;;;;4793963;29;86340;-71
2022/01/29 03:49:48;;;;;;;87.05;38.47;;;;;;;;;;4793156;29;89427;-72
2022/01/29 03:52:16;;;;;;;80.93;40.70;;;;;;;;;;4809323;29;88605;-71
2022/01/29 03:54:43;;;;;;;111.20;38.88;;;;;;;;;;4792899;29;87861;-71
2022/01/29 03:57:10;;;;;;;76.97;38.38;;;;;;;;;;4809487;29;87300;-71
2022/01/29 03:59:37;;;;;;;181.60;44.55;;;;;;;;;;4792902;29;90134;-71
2022/01/29 04:02:04;;;;;;;58.95;36.70;;;;;;;;;;4792024;29;90532;-71
2022/01/29 04:04:31;;;;;;;73.38;36.88;;;;;;;;;;4808283;29;86995;-71
2022/01/29 04:07:05;;;;;;;91.60;40.47;;;;;;;;;;4792959;29;86807;-71
2022/01/29 04:09:32;;;;;;;75.67;37.80;;;;;;;;;;4808731;29;89536;-70
2022/01/29 04:11:59;;;;;;;77.70;36.17;;;;;;;;;;4809620;29;88357;-71
2022/01/29 04:14:32;;;;;;;120.75;47.63;;;;;;;;;;4792763;29;87023;-70
2022/01/29 04:16:59;;;;;;;90.10;43.78;;;;;;;;;;4809784;29;86856;-70
2022/01/29 04:19:26;;;;;;;117.95;40.88;;;;;;;;;;4776464;29;90092;-70
2022/01/29 04:21:53;;;;;;;78.13;44.83;;;;;;;;;;4796106;29;89715;-70
2022/01/29 04:24:20;;;;;;;96.03;37.63;;;;;;;;;;4795319;29;86991;-70
2022/01/29 04:26:47;;;;;;;64.78;37.17;;;;;;;;;;4826961;29;87100;-70
2022/01/29 04:29:14;;;;;;;81.10;39.60;;;;;;;;;;4826649;29;89699;-70
2022/01/29 04:32:08;;;;;;;94.43;36.33;;;;;;;;;;4812155;29;87754;-70
2022/01/29 04:34:31;;;;;;;113.15;39.97;;;;;;;;;;4811957;29;87144;-70
2022/01/29 04:36:58;;;;;;;96.32;39.10;;;;;;;;;;4780817;29;86158;-70
2022/01/29 04:39:25;;;;;;;83.07;40.40;;;;;;;;;;4802297;29;89323;-70
2022/01/29 04:41:51;;;;;;;63.42;37.92;;;;;;;;;;4820914;29;88515;-70
2022/01/29 04:44:18;;;;;;;66.75;34.92;;;;;;;;;;4826136;29;88579;-70
2022/01/29 04:46:45;;;;;;;75.30;36.38;;;;;;;;;;4812425;29;86960;-71
2022/01/29 04:49:12;;;;;;;103.82;35.92;;;;;;;;;;4810823;29;88049;-71
2022/01/29 04:51:39;;;;;;;53.30;32.53;;;;;;;;;;4826170;29;89453;-71
2022/01/29 04:54:06;;;;;;;61.67;33.58;;;;;;;;;;4810448;29;86935;-71
2022/01/29 04:56:34;;;;;;;61.83;33.58;;;;;;;;;;4812206;29;86945;-72
2022/01/29 04:59:02;;;;;;;70.80;33.95;;;;;;;;;;4825518;29;87761;-71
2022/01/29 05:01:29;;;;;;;43.40;31.40;;;;;;;;;;4812384;29;87916;-71
2022/01/29 05:03:56;;;;;;;54.88;34.20;;;;;;;;;;4812285;29;87877;-73
2022/01/29 05:06:23;;;;;;;50.90;32.78;;;;;;;;;;4826308;29;87685;-71
2022/01/29 05:08:50;;;;;;;42.97;30.30;;;;;;;;;;4807833;29;89888;-72
2022/01/29 05:11:18;;;;;;;36.05;29.05;;;;;;;;;;4825742;29;88622;-71
2022/01/29 05:13:45;;;;;;;44.58;29.40;;;;;;;;;;4826278;29;87500;-71
2022/01/29 05:27:09;;;;;;;48.97;27.90;;;;;;;;;;4813068;29;86196;-69
2022/01/29 05:29:37;;;;;;;40.85;27.48;;;;;;;;;;4827784;29;88386;-70
2022/01/29 05:32:08;;;;;;;36.55;25.92;;;;;;;;;;4813899;29;86941;-70
2022/01/29 05:34:35;;;;;;;40.63;26.17;;;;;;;;;;4808476;29;89179;-73
2022/01/29 05:37:03;;;;;;;41.90;27.10;;;;;;;;;;4808687;29;87407;-72
2022/01/29 05:39:31;;;;;;;43.90;28.63;;;;;;;;;;4822522;29;87339;-71
2022/01/29 05:41:59;;;;;;;43.33;27.92;;;;;;;;;;4823422;29;87572;-72
2022/01/29 05:44:26;;;;;;;51.60;31.60;;;;;;;;;;4813040;29;87033;-68
2022/01/29 05:46:53;;;;;;;58.45;36.97;;;;;;;;;;4806287;29;88950;-70
2022/01/29 05:49:20;;;;;;;55.22;34.67;;;;;;;;;;4805590;29;89159;-72
2022/01/29 05:51:48;;;;;;;61.17;36.33;;;;;;;;;;4822475;29;89215;-72
2022/01/29 05:54:15;;;;;;;52.15;33.13;;;;;;;;;;4804702;29;86952;-71
2022/01/29 05:56:42;;;;;;;49.10;32.80;;;;;;;;;;4806728;29;86985;-71
2022/01/29 05:59:09;;;;;;;53.90;31.38;;;;;;;;;;4802156;29;90716;-71
2022/01/29 06:01:36;;;;;;;45.90;30.50;;;;;;;;;;4791714;29;90197;-69
2022/01/29 06:04:05;;;;;;;52.75;32.90;;;;;;;;;;4816289;29;88141;-69
2022/01/29 06:06:33;;;;;;;54.88;31.80;;;;;;;;;;4813517;29;87541;-70
2022/01/29 06:09:04;;;;;;;54.10;30.50;;;;;;;;;;4800221;29;89332;-70
2022/01/29 06:11:32;;;;;;;52.85;32.00;;;;;;;;;;4788599;29;89968;-70
2022/01/29 06:14:00;;;;;;;50.42;31.90;;;;;;;;;;4819602;29;87476;-70
2022/01/29 06:16:27;;;;;;;51.50;32.08;;;;;;;;;;4804271;29;86359;-71
2022/01/29 06:18:54;;;;;;;37.10;25.92;;;;;;;;;;4794917;29;88905;-71
2022/01/29 06:21:21;;;;;;;39.78;28.85;;;;;;;;;;4808685;29;87631;-72
2022/01/29 06:23:48;;;;;;;43.38;29.63;;;;;;;;;;4818372;29;88502;-73
2022/01/29 06:26:16;;;;;;;40.25;29.40;;;;;;;;;;4816340;29;87199;-73
2022/01/29 06:28:44;;;;;;;38.63;27.70;;;;;;;;;;4814441;29;88424;-72
2022/01/29 06:31:11;;;;;;;43.65;31.00;;;;;;;;;;4804996;29;86859;-73
2022/01/29 06:33:39;;;;;;;44.22;29.13;;;;;;;;;;4807832;29;87703;-73
2022/01/29 06:36:06;;;;;;;52.35;29.50;;;;;;;;;;4806099;29;86957;-73
2022/01/29 06:38:33;;;;;;;46.45;31.35;;;;;;;;;;4818288;29;89666;-72
2022/01/29 06:41:00;;;;;;;55.88;31.58;;;;;;;;;;4793218;29;87853;-71
2022/01/29 06:43:28;;;;;;;49.60;32.33;;;;;;;;;;4817937;29;87035;-71
2022/01/29 06:45:56;;;;;;;52.38;31.92;;;;;;;;;;4807679;29;87604;-73
2022/01/29 06:48:23;;;;;;;50.63;32.95;;;;;;;;;;4822512;29;88764;-70
2022/01/29 06:50:50;;;;;;;46.28;31.05;;;;;;;;;;4820009;29;88509;-70
2022/01/29 06:53:17;;;;;;;43.33;32.47;;;;;;;;;;4792751;29;87369;-72
2022/01/29 06:55:44;;;;;;;45.95;31.92;;;;;;;;;;4787084;29;88309;-70
2022/01/29 06:58:11;;;;;;;43.90;29.13;;;;;;;;;;4809852;29;87754;-70
2022/01/29 07:00:58;;;;;;;48.25;34.15;;;;;;;;;;4795713;29;86961;-70
2022/01/29 07:03:26;;;;;;;47.22;32.35;;;;;;;;;;4808757;29;87312;-70
2022/01/29 07:05:53;;;;;;;42.22;28.42;;;;;;;;;;4818449;29;86276;-70
2022/01/29 07:08:20;;;;;;;41.92;29.90;;;;;;;;;;4809500;29;87816;-70
2022/01/29 07:10:49;;;;;;;43.95;28.38;;;;;;;;;;4809094;29;87454;-70
2022/01/29 07:13:16;;;;;;;45.88;28.85;;;;;;;;;;4808193;29;87906;-70
2022/01/29 07:15:43;;;;;;;44.22;29.85;;;;;;;;;;4808563;29;87048;-70
2022/01/29 07:18:10;;;;;;;49.60;28.38;;;;;;;;;;4795806;29;88289;-70
2022/01/29 07:20:37;;;;;;;49.20;31.60;;;;;;;;;;4808230;29;87669;-70
2022/01/29 07:23:07;;;;;;;40.97;31.70;;;;;;;;;;4808208;29;87827;-70
2022/01/29 07:25:34;;;;;;;41.20;30.88;;;;;;;;;;4807737;29;87561;-70
2022/01/29 07:28:01;;;;;;;41.45;29.90;;;;;;;;;;4809720;29;88211;-70
2022/01/29 07:30:28;;;;;;;42.72;28.40;;;;;;;;;;4792875;29;87797;-67
2022/01/29 07:32:57;;;;;;;45.40;29.70;;;;;;;;;;4809674;29;87071;-67
2022/01/29 07:35:24;;;;;;;38.40;27.48;;;;;;;;;;4792811;29;87021;-69
2022/01/29 07:37:52;;;;;;;51.13;28.63;;;;;;;;;;4791186;29;89807;-68
2022/01/29 07:40:19;;;;;;;72.13;41.47;;;;;;;;;;4806398;29;88413;-72
2022/01/29 07:42:46;;;;;;;221.07;113.72;;;;;;;;;;4806326;29;87059;-70
2022/01/29 07:45:13;;;;;;;276.15;132.35;;;;;;;;;;4804168;29;87002;-70
2022/01/29 07:47:40;;;;;;;280.63;137.13;;;;;;;;;;4804679;29;87956;-71
2022/01/29 07:50:08;;;;;;;77.57;48.42;;;;;;;;;;4805600;29;87306;-71
2022/01/29 07:52:35;;;;;;;56.20;33.40;;;;;;;;;;4805237;29;87294;-71
2022/01/29 07:55:04;;;;;;;40.13;26.98;;;;;;;;;;4807376;29;86607;-70
2022/01/29 07:57:32;;;;;;;28.65;21.25;;;;;;;;;;4806942;29;87739;-70
2022/01/29 07:59:59;;;;;;;25.33;21.00;;;;;;;;;;4808519;29;87529;-69
2022/01/29 08:02:26;;;;;;;25.88;20.58;;;;;;;;;;4806047;29;87877;-69
2022/01/29 08:04:53;;;;;;;39.60;23.13;;;;;;;;;;4808417;29;87070;-70
2022/01/29 08:07:20;;;;;;;24.63;21.48;;;;;;;;;;4812375;29;88183;-68
2022/01/29 08:09:48;;;;;;;24.23;21.52;;;;;;;;;;4809864;29;87583;-69
2022/01/29 08:12:15;;;;;;;24.33;21.10;;;;;;;;;;4821560;29;86896;-70
2022/01/29 08:14:42;;;;;;;85.07;53.15;;;;;;;;;;4820131;29;87132;-69
2022/01/29 08:17:09;;;;;;;51.58;36.80;;;;;;;;;;4808852;29;89200;-69
2022/01/29 08:19:36;;;;;;;36.90;27.70;;;;;;;;;;4790885;29;88787;-69
2022/01/29 08:22:05;;;;;;;35.72;28.13;;;;;;;;;;4806208;29;87232;-69
2022/01/29 08:24:32;;;;;;;28.17;21.38;;;;;;;;;;4806236;29;87330;-70
2022/01/29 08:26:59;;;;;;;26.70;23.08;;;;;;;;;;4820620;29;89589;-70
2022/01/29 08:29:26;;;;;;;27.13;22.42;;;;;;;;;;4806177;29;88457;-69
2022/01/29 08:31:53;;;;;;;26.42;21.77;;;;;;;;;;4806729;29;87026;-69
2022/01/29 08:34:20;;;;;;;23.65;21.20;;;;;;;;;;4807093;29;87206;-70
2022/01/29 08:36:49;;;;;;;24.88;22.10;;;;;;;;;;4806834;29;89442;-69
2022/01/29 08:39:16;;;;;;;27.38;21.17;;;;;;;;;;4808411;29;87528;-69
2022/01/29 08:41:43;;;;;;;26.92;22.02;;;;;;;;;;4822295;29;87319;-69
2022/01/29 08:44:10;;;;;;;24.63;20.70;;;;;;;;;;4809507;29;86319;-68
2022/01/29 08:46:37;;;;;;;24.50;20.27;;;;;;;;;;4791441;29;89316;-69
2022/01/29 08:49:04;;;;;;;34.90;21.90;;;;;;;;;;4809059;29;87950;-67
2022/01/29 08:51:32;;;;;;;24.13;20.92;;;;;;;;;;4792135;29;87931;-68
2022/01/29 08:54:03;;;;;;;23.85;21.27;;;;;;;;;;4792660;29;86937;-70
2022/01/29 08:56:30;;;;;;;27.08;21.55;;;;;;;;;;4808725;29;87956;-68
2022/01/29 08:58:57;;;;;;;29.75;22.15;;;;;;;;;;4822043;29;88726;-68
2022/01/29 09:01:24;;;;;;;26.52;23.77;;;;;;;;;;4806837;29;86898;-68
2022/01/29 09:03:52;;;;;;;30.88;23.38;;;;;;;;;;4808364;29;87256;-68
2022/01/29 09:06:18;;;;;;;26.15;23.45;;;;;;;;;;4810125;29;88224;-68
2022/01/29 09:08:48;;;;;;;26.75;23.45;;;;;;;;;;4825843;29;87515;-68
2022/01/29 09:11:16;;;;;;;26.83;22.92;;;;;;;;;;4811135;29;86936;-68
2022/01/29 09:13:43;;;;;;;23.80;21.17;;;;;;;;;;4796672;29;87166;-68
2022/01/29 09:16:11;;;;;;;29.20;22.38;;;;;;;;;;4810648;29;90495;-68
2022/01/29 09:18:38;;;;;;;24.05;21.10;;;;;;;;;;4809906;29;90001;-68
2022/01/29 09:21:05;;;;;;;24.90;22.30;;;;;;;;;;4811404;29;86820;-68
2022/01/29 09:23:32;;;;;;;25.65;21.30;;;;;;;;;;4812101;29;87179;-68
2022/01/29 09:26:01;;;;;;;25.40;22.38;;;;;;;;;;4825563;29;89639;-69
2022/01/29 09:28:28;;;;;;;22.80;20.40;;;;;;;;;;4811613;29;88771;-68
2022/01/29 09:30:55;;;;;;;25.13;22.42;;;;;;;;;;4811598;29;87080;-67
2022/01/29 09:33:24;;;;;;;24.40;21.52;;;;;;;;;;4809420;29;86654;-69
2022/01/29 09:35:51;;;;;;;22.70;20.35;;;;;;;;;;4810207;29;89383;-67
2022/01/29 09:38:18;;;;;;;21.50;19.20;;;;;;;;;;4810765;29;88725;-67
2022/01/29 09:40:45;;;;;;;25.05;22.33;;;;;;;;;;4810585;29;87871;-67
2022/01/29 09:43:12;;;;;;;24.58;21.30;;;;;;;;;;4811425;29;86999;-67
2022/01/29 09:45:39;;;;;;;27.90;22.25;;;;;;;;;;4779577;29;89356;-67
2022/01/29 09:48:07;;;;;;;29.17;22.23;;;;;;;;;;4811186;29;86930;-68
2022/01/29 09:50:36;;;;;;;23.08;19.50;;;;;;;;;;4811149;29;86909;-67
2022/01/29 09:53:04;;;;;;;26.08;20.95;;;;;;;;;;4811701;29;86948;-67
2022/01/29 09:55:31;;;;;;;24.52;20.83;;;;;;;;;;4810607;29;89451;-67
2022/01/29 09:57:59;;;;;;;26.08;20.10;;;;;;;;;;4825438;29;86331;-67
2022/01/29 10:00:26;;;;;;;22.30;18.88;;;;;;;;;;4793750;29;87383;-67
2022/01/29 10:03:12;;;;;;;23.55;19.17;;;;;;;;;;4795076;29;86896;-67
2022/01/29 10:05:41;;;;;;;23.85;19.42;;;;;;;;;;4810427;29;90267;-67
2022/01/29 10:08:09;;;;;;;26.17;20.35;;;;;;;;;;4793744;29;89133;-70
2022/01/29 10:10:42;;;;;;;28.58;21.20;;;;;;;;;;4794991;29;86900;-67
2022/01/29 10:13:32;;;;;;;23.65;19.50;;;;;;;;;;4794061;29;87648;-68
2022/01/29 10:16:20;;;;;;;23.25;17.80;;;;;;;;;;4810983;29;89270;-67
2022/01/29 10:18:57;;;;;;;20.75;18.58;;;;;;;;;;4809327;29;88566;-67
2022/01/29 10:21:27;;;;;;;26.65;20.00;;;;;;;;;;4811004;29;86934;-67
2022/01/29 10:24:12;;;;;;;24.23;18.98;;;;;;;;;;4794261;29;87097;-68
2022/01/29 10:26:43;;;;;;;23.50;18.85;;;;;;;;;;4824961;29;87079;-67
2022/01/29 10:29:21;;;;;;;23.65;17.38;;;;;;;;;;4809936;29;89119;-67
2022/01/29 10:31:49;;;;;;;18.77;16.42;;;;;;;;;;4810611;29;88119;-67
2022/01/29 10:34:22;;;;;;;20.02;17.33;;;;;;;;;;4810737;29;86886;-68
2022/01/29 10:37:11;;;;;;;25.42;19.33;;;;;;;;;;4810242;29;87776;-68
2022/01/29 10:39:39;;;;;;;24.27;18.10;;;;;;;;;;4812534;29;89422;-67
2022/01/29 10:42:19;;;;;;;23.65;18.15;;;;;;;;;;4809652;29;87627;-68
2022/01/29 10:44:48;;;;;;;20.27;17.13;;;;;;;;;;4826393;29;87451;-68
2022/01/29 10:47:16;;;;;;;22.30;17.33;;;;;;;;;;4809465;29;87824;-69
2022/01/29 10:49:54;;;;;;;19.90;15.52;;;;;;;;;;4813862;29;87994;-71
2022/01/29 10:52:32;;;;;;;19.02;15.55;;;;;;;;;;4812378;29;88222;-68
2022/01/29 10:55:04;;;;;;;20.33;15.45;;;;;;;;;;4809513;29;87028;-68
2022/01/29 10:57:33;;;;;;;17.33;14.27;;;;;;;;;;4810768;29;89215;-70
2022/01/29 11:00:00;;;;;;;16.20;13.75;;;;;;;;;;4813306;29;88560;-68
2022/01/29 11:02:30;;;;;;;18.67;15.20;;;;;;;;;;4822927;29;87041;-67
2022/01/29 11:05:00;;;;;;;18.80;14.25;;;;;;;;;;4812020;29;87019;-69
2022/01/29 11:07:29;;;;;;;15.43;13.32;;;;;;;;;;4810072;29;88513;-70
2022/01/29 11:09:59;;;;;;;15.70;12.85;;;;;;;;;;4807460;29;87729;-67
2022/01/29 11:12:36;;;;;;;15.07;13.48;;;;;;;;;;4807671;29;87773;-67
2022/01/29 11:15:03;;;;;;;16.77;13.13;;;;;;;;;;4822411;29;86174;-69
2022/01/29 11:17:31;;;;;;;16.17;14.07;;;;;;;;;;4802723;29;88047;-67
2022/01/29 11:20:00;;;;;;;16.25;14.18;;;;;;;;;;4818483;29;87515;-67
2022/01/29 11:22:41;;;;;;;18.80;13.80;;;;;;;;;;4820260;29;87965;-67
2022/01/29 11:25:11;;;;;;;15.50;12.50;;;;;;;;;;4808121;29;86996;-68
2022/01/29 11:27:38;;;;;;;15.18;13.57;;;;;;;;;;4807798;29;87890;-68
2022/01/29 11:30:08;;;;;;;15.90;13.55;;;;;;;;;;4806434;29;87247;-67
2022/01/29 11:33:00;;;;;;;14.45;12.43;;;;;;;;;;4808440;29;87238;-68
2022/01/29 11:35:31;;;;;;;20.02;15.40;;;;;;;;;;4806292;29;87605;-67
2022/01/29 11:38:04;;;;;;;15.65;14.02;;;;;;;;;;4809188;29;89031;-68
2022/01/29 11:40:44;;;;;;;18.60;14.63;;;;;;;;;;4809094;29;89162;-68
2022/01/29 11:43:17;;;;;;;17.25;15.40;;;;;;;;;;4807960;29;87027;-67
2022/01/29 11:46:07;;;;;;;18.17;14.30;;;;;;;;;;4809215;29;87021;-67
2022/01/29 11:48:37;;;;;;;19.75;13.60;;;;;;;;;;4807068;29;90149;-68
2022/01/29 11:51:05;;;;;;;17.73;14.93;;;;;;;;;;4809308;29;90910;-67
2022/01/29 11:53:44;;;;;;;17.40;15.07;;;;;;;;;;4809830;29;86900;-67
2022/01/29 11:56:31;;;;;;;19.08;13.98;;;;;;;;;;4809494;29;87092;-67
2022/01/29 11:59:17;;;;;;;16.88;14.00;;;;;;;;;;4809692;29;88913;-67
2022/01/29 12:01:48;;;;;;;20.55;15.45;;;;;;;;;;4809259;29;87444;-67
2022/01/29 12:04:19;;;;;;;16.23;13.07;;;;;;;;;;4807583;29;86969;-68
2022/01/29 12:07:26;;;;;;;24.55;15.35;;;;;;;;;;4810025;29;86214;-68
2022/01/29 12:10:05;;;;;;;18.33;15.73;;;;;;;;;;4809337;29;89587;-68
2022/01/29 12:12:39;;;;;;;18.50;15.45;;;;;;;;;;4807915;29;89028;-67
2022/01/29 12:15:09;;;;;;;21.30;17.42;;;;;;;;;;4806413;29;87889;-67
2022/01/29 12:17:58;;;;;;;21.90;15.00;;;;;;;;;;4816639;29;86922;-67
2022/01/29 12:20:26;;;;;;;22.27;14.93;;;;;;;;;;4808059;29;87669;-67
2022/01/29 12:23:02;;;;;;;23.13;15.15;;;;;;;;;;4790086;29;89128;-70
2022/01/29 12:25:29;;;;;;;19.30;15.15;;;;;;;;;;4818493;29;87376;-68
2022/01/29 12:27:59;;;;;;;20.30;14.93;;;;;;;;;;4806268;29;87517;-68
2022/01/29 12:30:33;;;;;;;18.95;14.30;;;;;;;;;;4820020;29;87625;-68
2022/01/29 12:33:04;;;;;;;;;;;;;;;;;;4820745;29;87408;-68
2022/01/29 12:35:48;;;;;;;17.48;12.90;;;;;;;;;;4821557;29;87034;-69
2022/01/29 12:38:18;;;;;;;19.25;15.23;;;;;;;;;;4818870;29;87478;-68
2022/01/29 12:41:00;;;;;;;19.30;14.27;;;;;;;;;;4807744;29;89296;-68
2022/01/29 12:43:38;;;;;;;18.83;13.02;;;;;;;;;;4808239;29;90023;-69
2022/01/29 12:46:15;;;;;;;17.77;13.57;;;;;;;;;;4825266;29;86998;-67
2022/01/29 12:48:44;;;;;;;16.92;13.43;;;;;;;;;;4824218;29;86987;-68
2022/01/29 12:51:12;;;;;;;19.00;13.45;;;;;;;;;;4820104;29;87248;-68
2022/01/29 12:53:39;;;;;;;17.80;13.68;;;;;;;;;;4807486;29;87758;-68
2022/01/29 12:56:08;;;;;;;19.35;14.20;;;;;;;;;;4810958;29;87152;-69
2022/01/29 12:58:42;;;;;;;15.15;13.30;;;;;;;;;;4826258;29;86299;-68
2022/01/29 13:01:12;;;;;;;18.53;14.00;;;;;;;;;;4809642;29;87808;-68
2022/01/29 13:03:39;;;;;;;18.25;14.10;;;;;;;;;;4824633;29;88697;-68
2022/01/29 13:06:11;;;;;;;17.10;14.35;;;;;;;;;;4807602;29;88308;-68
2022/01/29 13:08:39;;;;;;;16.77;13.70;;;;;;;;;;4810917;29;86989;-68
2022/01/29 13:11:24;;;;;;;16.20;14.18;;;;;;;;;;4809591;29;87875;-68
2022/01/29 13:13:58;;;;;;;37.22;14.25;;;;;;;;;;4815542;29;87518;-68
2022/01/29 13:16:31;;;;;;;21.40;14.73;;;;;;;;;;4824002;29;88186;-68
2022/01/29 13:18:59;;;;;;;21.02;13.98;;;;;;;;;;4823982;29;87694;-68
2022/01/29 13:21:29;;;;;;;18.10;14.30;;;;;;;;;;4809981;29;87936;-68
2022/01/29 13:23:57;;;;;;;30.55;13.90;;;;;;;;;;4809865;29;86525;-68
2022/01/29 13:26:29;;;;;;;18.25;13.85;;;;;;;;;;4810275;29;87130;-69
2022/01/29 13:29:05;;;;;;;17.13;13.20;;;;;;;;;;4810749;29;87569;-68
2022/01/29 13:31:45;;;;;;;15.75;14.07;;;;;;;;;;4817343;29;88947;-68
2022/01/29 13:34:33;;;;;;;16.67;13.95;;;;;;;;;;4806800;29;89476;-68
2022/01/29 13:37:38;;;;;;;17.92;12.93;;;;;;;;;;4822928;29;86963;-67
2022/01/29 13:40:07;;;;;;;15.57;13.85;;;;;;;;;;4757976;29;87545;-67
2022/01/29 13:42:42;;;;;;;15.98;13.15;;;;;;;;;;4775867;29;88048;-67
2022/01/29 13:45:09;;;;;;;20.35;13.02;;;;;;;;;;4805313;29;87756;-68
2022/01/29 13:47:57;;;;;;;20.10;13.57;;;;;;;;;;4791131;29;87071;-68
2022/01/29 13:50:27;;;;;;;18.42;13.18;;;;;;;;;;4790447;29;86228;-67
2022/01/29 13:53:12;;;;;;;19.30;12.75;;;;;;;;;;4804810;29;88209;-67
2022/01/29 13:55:57;;;;;;;17.83;14.55;;;;;;;;;;4791983;29;88969;-67
2022/01/29 13:58:24;;;;;;;17.08;13.52;;;;;;;;;;4790714;29;87942;-68
2022/01/29 14:01:03;;;;;;;20.40;14.40;;;;;;;;;;4806425;29;87026;-67
2022/01/29 14:03:48;;;;;;;20.23;15.65;;;;;;;;;;4791246;29;87921;-67
2022/01/29 14:06:25;;;;;;;19.13;14.30;;;;;;;;;;4789461;29;87373;-67
2022/01/29 14:09:14;;;;;;;19.15;14.27;;;;;;;;;;4792362;29;87391;-68
2022/01/29 14:11:59;;;;;;;22.10;15.35;;;;;;;;;;4805324;29;87537;-68
2022/01/29 14:14:38;;;;;;;23.55;15.98;;;;;;;;;;4789597;29;87775;-67
2022/01/29 14:17:33;;;;;;;20.95;13.95;;;;;;;;;;4789496;29;87573;-67
2022/01/29 14:20:03;;;;;;;18.67;14.60;;;;;;;;;;4791916;29;86956;-67
2022/01/29 14:22:32;;;;;;;22.65;15.82;;;;;;;;;;4792001;29;87007;-67
2022/01/29 14:25:02;;;;;;;18.25;14.35;;;;;;;;;;4791560;29;88161;-67
2022/01/29 14:27:30;;;;;;;23.98;16.35;;;;;;;;;;4790748;29;88696;-67
2022/01/29 14:29:57;;;;;;;18.30;15.88;;;;;;;;;;4804091;29;86905;-68
2022/01/29 14:32:26;;;;;;;17.77;14.77;;;;;;;;;;4790554;29;86873;-69
2022/01/29 14:35:03;;;;;;;26.17;17.45;;;;;;;;;;4788443;29;87014;-67
2022/01/29 14:37:31;;;;;;;19.42;15.05;;;;;;;;;;4805292;29;87597;-67
2022/01/29 14:39:58;;;;;;;17.73;15.13;;;;;;;;;;4796002;29;86994;-67
2022/01/29 14:42:33;;;;;;;20.95;15.73;;;;;;;;;;4810119;29;86210;-67